Time;durP1;ratioP1;P1;durP2;ratioP2;P2;SDS_P1;SDS_P2;PMS_P1;PMS_P2;Temp;Humidity;BMP_temperature;BMP_pressure;BME280_temperature;BME280_humidity;BME280_pressure;Samples;Min_cycle;Max_cycle;Signal;HPM_P1;HPM_P2
2023/01/26 00:02:14;;;;;;;19.75;12.65;;;4.10;99.90;;;;;;5054174;28;20252;-79
2023/01/26 00:04:42;;;;;;;22.00;15.02;;;4.10;99.90;;;;;;5074712;28;20232;-79
2023/01/26 00:07:12;;;;;;;23.52;14.93;;;4.10;99.90;;;;;;5076883;28;20616;-79
2023/01/26 00:09:39;;;;;;;14.85;10.65;;;4.10;99.90;;;;;;5078212;28;20232;-79
2023/01/26 00:15:24;;;;;;;21.90;13.23;;;4.10;99.90;;;;;;5070641;28;20224;-78
2023/01/26 00:17:51;;;;;;;15.45;10.85;;;4.10;99.90;;;;;;5087277;28;20314;-79
2023/01/26 00:20:19;;;;;;;17.65;12.70;;;4.10;99.90;;;;;;5086832;28;20255;-79
2023/01/26 00:22:49;;;;;;;17.02;11.80;;;4.10;99.90;;;;;;5086713;28;20396;-80
2023/01/26 00:25:16;;;;;;;17.80;12.27;;;4.10;99.90;;;;;;5080267;28;20232;-80
2023/01/26 00:27:45;;;;;;;19.52;13.15;;;4.10;99.90;;;;;;5079184;28;20554;-78
2023/01/26 00:30:20;;;;;;;19.50;10.55;;;4.10;99.90;;;;;;5076555;28;20228;-78
2023/01/26 00:32:47;;;;;;;22.55;12.65;;;4.10;99.90;;;;;;5064398;28;20304;-79
2023/01/26 00:35:14;;;;;;;19.08;12.60;;;4.00;99.90;;;;;;5060789;28;20688;-78
2023/01/26 00:37:44;;;;;;;24.20;14.88;;;4.00;99.90;;;;;;5074421;28;20220;-77
2023/01/26 00:40:11;;;;;;;20.58;13.60;;;4.00;99.90;;;;;;5054214;28;20233;-78
2023/01/26 00:42:56;;;;;;;;;;;;;;;;;;;;;
2023/01/26 00:45:24;;;;;;;17.70;11.70;;;4.00;99.90;;;;;;5052387;28;20235;-77
2023/01/26 00:47:51;;;;;;;20.10;13.43;;;4.00;99.90;;;;;;5048552;28;20237;-78
2023/01/26 00:50:18;;;;;;;23.80;14.30;;;4.00;99.90;;;;;;5042211;28;20281;-77
2023/01/26 00:52:48;;;;;;;19.70;13.50;;;4.00;99.90;;;;;;5052890;28;20221;-78
2023/01/26 00:55:19;;;;;;;21.55;12.55;;;4.00;99.90;;;;;;5052291;28;20224;-78
2023/01/26 00:57:46;;;;;;;16.92;12.27;;;4.00;99.90;;;;;;5053095;28;20303;-77
2023/01/26 01:00:16;;;;;;;26.35;14.13;;;4.00;99.90;;;;;;5046030;28;20256;-80
2023/01/26 01:02:46;;;;;;;20.67;13.90;;;4.00;99.90;;;;;;5055303;28;20224;-80
2023/01/26 01:05:14;;;;;;;23.55;14.90;;;4.10;99.90;;;;;;5054136;28;20232;-79
2023/01/26 01:07:43;;;;;;;18.65;13.98;;;4.10;99.90;;;;;;5054964;28;20251;-79
2023/01/26 01:10:15;;;;;;;20.80;13.50;;;4.10;99.90;;;;;;5044185;28;20228;-80
2023/01/26 01:12:42;;;;;;;25.88;16.55;;;4.10;99.90;;;;;;5052078;28;20247;-78
2023/01/26 01:15:16;;;;;;;25.88;14.55;;;4.10;99.90;;;;;;5052581;28;20621;-78
2023/01/26 01:17:44;;;;;;;24.00;13.70;;;4.10;99.90;;;;;;5054751;28;20662;-80
2023/01/26 01:20:12;;;;;;;25.08;14.60;;;4.10;99.90;;;;;;5053706;28;20233;-78
2023/01/26 01:22:39;;;;;;;26.27;15.63;;;4.10;99.90;;;;;;5055289;28;20221;-78
2023/01/26 01:25:07;;;;;;;27.48;13.30;;;4.10;99.90;;;;;;5053682;28;20236;-80
2023/01/26 01:27:37;;;;;;;21.88;14.57;;;4.10;99.90;;;;;;5053871;28;20220;-79
2023/01/26 01:30:06;;;;;;;21.98;13.80;;;4.10;99.90;;;;;;5053927;28;20572;-77
2023/01/26 01:32:35;;;;;;;22.02;13.32;;;4.10;99.90;;;;;;5043452;28;20290;-78
2023/01/26 01:35:03;;;;;;;23.80;17.02;;;4.10;99.90;;;;;;5054598;28;20574;-76
2023/01/26 01:37:33;;;;;;;24.13;13.25;;;4.10;99.90;;;;;;5052622;28;20228;-77
2023/01/26 01:40:00;;;;;;;23.40;14.85;;;4.10;99.90;;;;;;5053206;28;20315;-78
2023/01/26 01:42:27;;;;;;;28.50;15.85;;;4.10;99.90;;;;;;5052714;28;20221;-79
2023/01/26 01:45:36;;;;;;;27.10;16.17;;;4.10;99.90;;;;;;5053452;28;20275;-79
2023/01/26 01:48:14;;;;;;;25.90;16.52;;;4.10;99.90;;;;;;5053258;28;20639;-78
2023/01/26 01:50:47;;;;;;;26.25;14.63;;;4.10;99.90;;;;;;5054996;28;20750;-78
2023/01/26 01:53:23;;;;;;;25.45;15.52;;;4.10;99.90;;;;;;5051277;28;20701;-77
2023/01/26 01:55:54;;;;;;;21.88;15.52;;;4.10;99.90;;;;;;5052008;28;20716;-77
2023/01/26 01:58:22;;;;;;;22.80;14.25;;;4.10;99.90;;;;;;5053697;28;20557;-78
2023/01/26 02:00:52;;;;;;;21.73;13.40;;;4.10;99.90;;;;;;5053940;28;20232;-77
2023/01/26 02:03:30;;;;;;;;;;;;;;;;;;;;;
2023/01/26 02:06:07;;;;;;;29.30;16.67;;;4.10;99.90;;;;;;5051115;28;20216;-79
2023/01/26 02:08:40;;;;;;;28.63;14.15;;;4.10;99.90;;;;;;5052557;28;20229;-77
2023/01/26 02:11:10;;;;;;;22.60;14.20;;;4.10;99.90;;;;;;5043997;28;20313;-78
2023/01/26 02:13:41;;;;;;;20.30;13.35;;;4.10;99.90;;;;;;5054136;28;20666;-77
2023/01/26 02:19:31;;;;;;;16.92;12.10;;;4.10;99.90;;;;;;5052566;28;20236;-77
2023/01/26 02:22:11;;;;;;;23.77;12.98;;;4.10;99.90;;;;;;5052962;28;20740;-78
2023/01/26 02:24:42;;;;;;;23.63;13.80;;;4.10;99.90;;;;;;5044518;28;20216;-77
2023/01/26 02:27:15;;;;;;;20.63;13.30;;;4.10;99.90;;;;;;5043929;28;20303;-77
2023/01/26 02:29:42;;;;;;;16.70;11.82;;;4.10;99.90;;;;;;5053266;28;20650;-78
2023/01/26 02:32:09;;;;;;;24.20;14.57;;;4.10;99.90;;;;;;5054279;28;20229;-79
2023/01/26 02:34:39;;;;;;;22.45;13.55;;;4.00;99.90;;;;;;5055274;28;20323;-78
2023/01/26 02:37:15;;;;;;;28.33;15.75;;;4.10;99.90;;;;;;5056324;28;20228;-76
2023/01/26 02:39:51;;;;;;;22.20;14.30;;;4.00;99.90;;;;;;5056387;28;20662;-77
2023/01/26 02:42:43;;;;;;;20.30;14.88;;;4.00;99.90;;;;;;5049774;28;20239;-77
2023/01/26 02:45:14;;;;;;;23.85;16.25;;;4.00;99.90;;;;;;5058225;28;20222;-79
2023/01/26 02:47:43;;;;;;;21.08;13.38;;;4.00;99.90;;;;;;5066747;28;20220;-78
2023/01/26 02:50:13;;;;;;;19.83;14.93;;;4.00;99.90;;;;;;5061725;28;20233;-77
2023/01/26 02:52:46;;;;;;;22.38;12.93;;;4.00;99.90;;;;;;5064265;28;20246;-79
2023/01/26 02:55:28;;;;;;;18.00;13.60;;;4.00;99.90;;;;;;5059606;28;20224;-79
2023/01/26 02:58:02;;;;;;;24.17;14.43;;;4.00;99.90;;;;;;5066992;28;20224;-78
2023/01/26 03:00:33;;;;;;;20.00;12.43;;;4.00;99.90;;;;;;5070567;28;20220;-79
2023/01/26 03:03:03;;;;;;;25.45;16.10;;;4.00;99.90;;;;;;5068897;28;20316;-77
2023/01/26 03:05:30;;;;;;;27.58;15.05;;;4.00;99.90;;;;;;5066455;28;20224;-78
2023/01/26 03:07:57;;;;;;;22.63;14.40;;;4.00;99.90;;;;;;5059656;28;20221;-78
2023/01/26 03:10:25;;;;;;;27.95;16.15;;;4.00;99.90;;;;;;5056097;28;20220;-78
2023/01/26 03:12:53;;;;;;;24.48;14.20;;;3.90;99.90;;;;;;5045753;28;20224;-79
2023/01/26 03:15:51;;;;;;;23.98;14.82;;;3.90;99.90;;;;;;5056964;28;20290;-79
2023/01/26 03:29:19;;;;;;;18.05;13.20;;;3.90;99.90;;;;;;5056434;28;20453;-78
2023/01/26 03:31:48;;;;;;;21.42;12.75;;;3.90;99.90;;;;;;5056501;28;20225;-79
2023/01/26 03:34:16;;;;;;;19.48;12.88;;;3.90;99.90;;;;;;5056105;28;20225;-77
2023/01/26 03:36:43;;;;;;;18.75;11.48;;;3.90;99.90;;;;;;5056087;28;20607;-78
2023/01/26 03:41:06;;;;;;;17.77;11.82;;;4.00;99.90;;;;;;5055430;28;20236;-77
2023/01/26 03:58:31;;;;;;;17.77;11.27;;;3.90;99.90;;;;;;5055567;28;20270;-77
2023/01/26 04:00:58;;;;;;;19.25;12.88;;;3.90;99.90;;;;;;5055110;28;20228;-78
2023/01/26 04:08:55;;;;;;;21.77;11.55;;;3.90;99.90;;;;;;5055618;28;20691;-79
2023/01/26 04:11:22;;;;;;;17.20;10.23;;;3.90;99.90;;;;;;5054602;28;20221;-78
2023/01/26 04:22:03;;;;;;;16.25;11.23;;;3.90;99.90;;;;;;5054863;28;20251;-78
2023/01/26 04:24:30;;;;;;;14.07;10.27;;;4.00;99.90;;;;;;5055177;28;20228;-77
2023/01/26 04:26:57;;;;;;;19.75;13.10;;;3.90;99.90;;;;;;5053288;28;20221;-77
2023/01/26 04:29:26;;;;;;;15.20;11.23;;;3.90;99.90;;;;;;5054741;28;20236;-76
2023/01/26 04:31:53;;;;;;;15.13;11.30;;;3.90;99.90;;;;;;5055125;28;20224;-78
2023/01/26 04:34:22;;;;;;;17.60;12.35;;;3.90;99.90;;;;;;5053762;28;20225;-78
2023/01/26 04:36:49;;;;;;;20.27;13.40;;;3.90;99.90;;;;;;5055206;28;20278;-78
2023/01/26 04:39:16;;;;;;;15.98;12.02;;;3.90;99.90;;;;;;5054107;28;25979;-76
2023/01/26 04:41:43;;;;;;;13.63;11.35;;;3.90;99.90;;;;;;5054398;28;20303;-78
2023/01/26 04:44:11;;;;;;;14.48;11.18;;;3.90;99.90;;;;;;5054617;28;20267;-77
2023/01/26 04:46:38;;;;;;;16.00;11.10;;;4.00;99.90;;;;;;5054032;28;20549;-77
2023/01/26 04:49:05;;;;;;;18.58;12.95;;;4.00;99.90;;;;;;5053468;28;20232;-77
2023/01/26 04:51:34;;;;;;;20.67;11.98;;;4.00;99.90;;;;;;5054624;28;20225;-79
2023/01/26 04:54:02;;;;;;;17.75;11.80;;;4.00;99.90;;;;;;5054556;28;20633;-77
2023/01/26 04:56:31;;;;;;;15.68;11.50;;;4.00;99.90;;;;;;5054589;28;20220;-78
2023/01/26 04:58:59;;;;;;;18.30;12.65;;;4.00;99.90;;;;;;5053230;28;20228;-79
2023/01/26 05:01:28;;;;;;;20.55;11.65;;;4.00;99.90;;;;;;5055624;28;20248;-79
2023/01/26 05:03:55;;;;;;;19.65;10.68;;;4.00;99.90;;;;;;5054776;28;20294;-78
2023/01/26 05:06:22;;;;;;;18.60;11.70;;;4.00;99.90;;;;;;5053335;28;20308;-77
2023/01/26 05:08:51;;;;;;;16.48;11.27;;;4.00;99.90;;;;;;5053470;28;20249;-78
2023/01/26 05:11:18;;;;;;;22.60;13.43;;;4.00;99.90;;;;;;5044273;28;20546;-79
2023/01/26 05:13:47;;;;;;;16.45;11.35;;;4.00;99.90;;;;;;5053847;28;20225;-79
2023/01/26 05:16:15;;;;;;;20.30;12.05;;;3.90;99.90;;;;;;5052707;28;20708;-79
2023/01/26 05:18:43;;;;;;;20.45;12.48;;;3.90;99.90;;;;;;5053805;28;20236;-78
2023/01/26 05:21:15;;;;;;;17.35;11.63;;;3.90;99.90;;;;;;5053194;28;20279;-78
2023/01/26 05:23:43;;;;;;;17.35;11.63;;;3.90;99.90;;;;;;5053278;28;20228;-79
2023/01/26 05:26:11;;;;;;;20.10;11.35;;;3.90;99.90;;;;;;5053890;28;20308;-77
2023/01/26 05:28:38;;;;;;;16.52;11.02;;;3.90;99.90;;;;;;5052860;28;20244;-79
2023/01/26 05:31:05;;;;;;;14.52;10.55;;;3.90;99.90;;;;;;5053203;28;20229;-78
2023/01/26 05:33:33;;;;;;;18.40;11.52;;;3.90;99.90;;;;;;5053065;28;20220;-78
2023/01/26 05:36:04;;;;;;;18.80;11.68;;;3.90;99.90;;;;;;5042914;28;20244;-77
2023/01/26 05:38:31;;;;;;;18.63;11.93;;;3.90;99.90;;;;;;5053640;28;20228;-78
2023/01/26 05:40:59;;;;;;;14.95;10.27;;;3.90;99.90;;;;;;5051497;28;20263;-78
2023/01/26 05:43:29;;;;;;;16.10;10.15;;;3.90;99.90;;;;;;5035922;28;20239;-79
2023/01/26 05:45:56;;;;;;;16.75;10.20;;;3.90;99.90;;;;;;5052074;28;20262;-79
2023/01/26 05:48:24;;;;;;;16.92;10.00;;;3.90;99.90;;;;;;5052855;28;20225;-79
2023/01/26 05:50:51;;;;;;;17.02;10.60;;;3.90;99.90;;;;;;5043998;28;20589;-78
2023/01/26 05:53:24;;;;;;;16.98;10.13;;;3.90;99.90;;;;;;5053110;28;20220;-79
2023/01/26 05:55:51;;;;;;;16.50;9.90;;;3.90;99.90;;;;;;5052663;28;20278;-79
2023/01/26 05:58:18;;;;;;;15.93;10.70;;;3.90;99.90;;;;;;5053441;28;20251;-79
2023/01/26 06:00:46;;;;;;;21.92;10.70;;;3.90;99.90;;;;;;5051730;28;20224;-79
2023/01/26 06:03:15;;;;;;;16.50;11.85;;;3.90;99.90;;;;;;5053448;28;20297;-78
2023/01/26 06:05:42;;;;;;;18.08;11.85;;;3.90;99.90;;;;;;5052771;28;20239;-79
2023/01/26 06:08:09;;;;;;;12.10;9.13;;;3.90;99.90;;;;;;5052520;28;20282;-79
2023/01/26 06:10:36;;;;;;;18.23;11.52;;;3.90;99.90;;;;;;5053040;28;20252;-79
2023/01/26 06:13:05;;;;;;;17.40;11.27;;;3.90;99.90;;;;;;5052908;28;20232;-79
2023/01/26 06:15:32;;;;;;;17.27;11.95;;;3.90;99.90;;;;;;5052621;28;20297;-79
2023/01/26 06:18:02;;;;;;;21.83;12.05;;;3.90;99.90;;;;;;5051923;28;20235;-79
2023/01/26 06:20:29;;;;;;;16.92;11.38;;;4.00;99.90;;;;;;5053492;28;20232;-78
2023/01/26 06:23:00;;;;;;;16.25;10.73;;;4.00;99.90;;;;;;5051749;28;20228;-79
2023/01/26 06:25:27;;;;;;;16.55;11.05;;;3.90;99.90;;;;;;5052951;28;20277;-79
2023/01/26 06:27:57;;;;;;;18.95;12.77;;;3.90;99.90;;;;;;5051868;28;20700;-79
2023/01/26 06:30:27;;;;;;;14.80;10.57;;;3.90;99.90;;;;;;5053199;28;20298;-79
2023/01/26 06:32:54;;;;;;;17.73;10.45;;;3.90;99.90;;;;;;5051814;28;20308;-79
2023/01/26 06:35:41;;;;;;;15.20;10.13;;;3.90;99.90;;;;;;5052988;28;20272;-78
2023/01/26 06:38:08;;;;;;;16.50;10.73;;;3.90;99.90;;;;;;5050341;28;20228;-79
2023/01/26 06:40:36;;;;;;;17.73;11.35;;;3.90;99.90;;;;;;5053105;28;20618;-79
2023/01/26 06:43:12;;;;;;;21.42;10.43;;;3.90;99.90;;;;;;5051691;28;20733;-79
2023/01/26 06:45:40;;;;;;;15.57;9.85;;;3.90;99.90;;;;;;5052063;28;20224;-79
2023/01/26 06:48:10;;;;;;;17.95;10.68;;;3.90;99.90;;;;;;5052786;28;20631;-77
2023/01/26 06:50:40;;;;;;;17.30;10.35;;;3.90;99.90;;;;;;5051671;28;20693;-78
2023/01/26 06:53:26;;;;;;;17.58;10.27;;;3.90;99.90;;;;;;5055943;28;20263;-77
2023/01/26 06:55:53;;;;;;;14.48;9.27;;;3.80;99.90;;;;;;5058809;28;20224;-77
2023/01/26 06:58:23;;;;;;;16.15;10.30;;;3.80;99.90;;;;;;5059879;28;20225;-78
2023/01/26 07:00:52;;;;;;;14.45;10.07;;;3.80;99.90;;;;;;5058399;28;20224;-79
2023/01/26 07:03:20;;;;;;;13.25;8.55;;;3.80;99.90;;;;;;5058266;28;20274;-78
2023/01/26 07:05:48;;;;;;;17.75;10.90;;;3.80;99.90;;;;;;5058795;28;20228;-78
2023/01/26 07:08:15;;;;;;;17.45;10.65;;;3.80;99.90;;;;;;5059005;28;20592;-79
2023/01/26 07:10:42;;;;;;;15.10;11.20;;;3.80;99.90;;;;;;5059887;28;20232;-79
2023/01/26 07:13:09;;;;;;;17.23;11.25;;;3.80;99.90;;;;;;5047549;28;20274;-78
2023/01/26 07:15:37;;;;;;;16.70;11.95;;;3.80;99.90;;;;;;5059169;28;20232;-79
2023/01/26 07:18:04;;;;;;;18.75;11.75;;;3.80;99.90;;;;;;5056940;28;20224;-78
2023/01/26 07:20:32;;;;;;;20.83;9.85;;;3.80;99.90;;;;;;5059089;28;20232;-78
2023/01/26 07:23:03;;;;;;;18.20;11.35;;;3.80;99.90;;;;;;5060599;28;20618;-79
2023/01/26 07:25:30;;;;;;;20.92;12.98;;;3.80;99.90;;;;;;5059787;28;20240;-78
2023/01/26 07:28:00;;;;;;;21.02;13.68;;;3.80;99.90;;;;;;5058889;28;20563;-79
2023/01/26 07:30:32;;;;;;;16.70;11.25;;;3.80;99.90;;;;;;5058045;28;20267;-78
2023/01/26 07:33:04;;;;;;;22.00;12.73;;;3.80;99.90;;;;;;5058910;28;20221;-78
2023/01/26 07:35:31;;;;;;;19.08;11.57;;;3.70;99.90;;;;;;5047555;28;20223;-78
2023/01/26 07:37:58;;;;;;;18.45;12.55;;;3.70;99.90;;;;;;5058772;28;20270;-78
2023/01/26 07:40:26;;;;;;;18.50;11.25;;;3.70;99.90;;;;;;5058654;28;20239;-77
2023/01/26 07:42:55;;;;;;;14.30;9.98;;;3.70;99.90;;;;;;5059529;28;20221;-78
2023/01/26 07:45:22;;;;;;;14.20;8.50;;;3.70;99.90;;;;;;5059731;28;20239;-79
2023/01/26 07:47:52;;;;;;;16.15;10.07;;;3.70;99.90;;;;;;5050218;28;20635;-79
2023/01/26 07:50:22;;;;;;;15.70;10.80;;;3.70;99.90;;;;;;5058027;28;20323;-79
2023/01/26 07:52:51;;;;;;;17.65;12.00;;;3.70;99.90;;;;;;5059095;28;20216;-78
2023/01/26 07:55:19;;;;;;;12.38;8.45;;;3.70;99.90;;;;;;5059387;28;20236;-78
2023/01/26 07:57:48;;;;;;;12.18;8.00;;;3.70;99.90;;;;;;5059381;28;20228;-78
2023/01/26 08:00:16;;;;;;;11.68;8.13;;;3.70;99.90;;;;;;5058985;28;20749;-79
2023/01/26 08:02:47;;;;;;;12.95;8.07;;;3.70;99.90;;;;;;5058768;28;20713;-78
2023/01/26 08:05:14;;;;;;;13.23;8.93;;;3.70;99.90;;;;;;5054396;28;20239;-79
2023/01/26 08:07:41;;;;;;;12.57;9.38;;;3.70;99.90;;;;;;5054834;28;20228;-78
2023/01/26 08:10:18;;;;;;;13.98;9.60;;;3.70;99.90;;;;;;5055826;28;20555;-78
2023/01/26 08:12:47;;;;;;;17.20;9.38;;;3.70;99.90;;;;;;5056123;28;20220;-77
2023/01/26 08:15:17;;;;;;;12.38;8.27;;;3.70;99.90;;;;;;5055849;28;20225;-77
2023/01/26 08:17:44;;;;;;;14.15;7.72;;;3.60;99.90;;;;;;5055129;28;20231;-77
2023/01/26 08:20:12;;;;;;;14.35;9.63;;;3.70;99.90;;;;;;5048089;28;20228;-78
2023/01/26 08:22:39;;;;;;;9.95;8.30;;;3.70;99.90;;;;;;5055933;28;20675;-80
2023/01/26 08:25:08;;;;;;;14.25;10.55;;;3.70;99.90;;;;;;5055730;28;20224;-78
2023/01/26 08:27:36;;;;;;;15.18;11.00;;;3.70;99.90;;;;;;5054255;28;20220;-79
2023/01/26 08:30:05;;;;;;;22.60;12.38;;;3.70;99.90;;;;;;5054929;28;20598;-76
2023/01/26 08:32:35;;;;;;;16.83;11.43;;;3.70;99.90;;;;;;5055058;28;20225;-78
2023/01/26 08:35:02;;;;;;;20.10;12.43;;;3.70;99.90;;;;;;5056788;28;20618;-79
2023/01/26 08:37:38;;;;;;;13.90;10.60;;;3.70;99.90;;;;;;5045440;28;20681;-79
2023/01/26 08:40:06;;;;;;;12.88;9.65;;;3.70;99.90;;;;;;5018947;28;20239;-79
2023/01/26 08:42:34;;;;;;;13.55;10.10;;;3.70;99.90;;;;;;5055683;28;20297;-79
2023/01/26 08:45:01;;;;;;;10.32;7.18;;;3.70;99.90;;;;;;5045183;28;20225;-79
2023/01/26 08:47:31;;;;;;;12.52;9.35;;;3.70;99.90;;;;;;5056032;28;20229;-80
2023/01/26 08:49:58;;;;;;;13.02;8.90;;;3.70;99.90;;;;;;5044655;28;20228;-78
2023/01/26 08:52:25;;;;;;;12.82;9.05;;;3.70;99.90;;;;;;5057094;28;20231;-79
2023/01/26 08:54:53;;;;;;;13.25;7.30;;;3.60;99.90;;;;;;5047387;28;20224;-78
2023/01/26 08:57:49;;;;;;;;;;;;;;;;;;;;;
2023/01/26 09:00:17;;;;;;;9.65;8.05;;;3.60;99.90;;;;;;5065352;28;20307;-79
2023/01/26 09:02:57;;;;;;;9.80;7.28;;;3.60;99.90;;;;;;5068447;28;20235;-79
2023/01/26 09:05:27;;;;;;;9.55;8.05;;;3.60;99.90;;;;;;5074831;28;20270;-79
2023/01/26 09:07:54;;;;;;;9.82;8.32;;;3.60;99.90;;;;;;5059183;28;20208;-80
2023/01/26 09:10:33;;;;;;;14.00;7.85;;;3.60;99.90;;;;;;5068259;28;20244;-78
2023/01/26 09:13:01;;;;;;;10.00;6.93;;;3.60;99.90;;;;;;5071522;28;20220;-80
2023/01/26 09:15:28;;;;;;;11.27;8.68;;;3.60;99.90;;;;;;5059693;28;20272;-79
2023/01/26 09:17:58;;;;;;;10.75;9.10;;;3.60;99.90;;;;;;5066099;28;20624;-77
2023/01/26 09:20:25;;;;;;;9.77;8.18;;;3.60;99.90;;;;;;5071360;28;20217;-78
2023/01/26 09:22:56;;;;;;;9.40;7.60;;;3.60;99.90;;;;;;5072137;28;20299;-79
2023/01/26 09:25:23;;;;;;;10.63;7.95;;;3.60;99.90;;;;;;5071489;28;20282;-78
2023/01/26 09:27:50;;;;;;;11.35;9.07;;;3.60;99.90;;;;;;5060717;28;20228;-78
2023/01/26 09:31:09;;;;;;;;;;;;;;;;;;;;;
2023/01/26 09:33:38;;;;;;;12.80;10.30;;;3.60;99.90;;;;;;5053094;28;20250;-79
2023/01/26 09:36:08;;;;;;;13.13;9.77;;;3.50;99.90;;;;;;5044796;28;20294;-79
2023/01/26 09:38:35;;;;;;;11.07;8.02;;;3.50;99.90;;;;;;5043485;28;20674;-79
2023/01/26 09:41:07;;;;;;;12.68;9.32;;;3.50;99.90;;;;;;5054229;28;20230;-79
2023/01/26 09:43:40;;;;;;;13.75;9.35;;;3.50;99.90;;;;;;5055758;28;20289;-79
2023/01/26 09:46:25;;;;;;;12.23;10.88;;;3.50;99.90;;;;;;5042949;28;20674;-79
2023/01/26 09:49:03;;;;;;;13.43;10.63;;;3.50;99.90;;;;;;5032789;28;20686;-79
2023/01/26 09:51:45;;;;;;;14.85;10.57;;;3.50;99.90;;;;;;5054562;28;20216;-79
2023/01/26 09:57:17;;;;;;;13.90;10.05;;;3.60;99.90;;;;;;5037291;28;20242;-79
2023/01/26 09:59:51;;;;;;;18.38;9.02;;;3.60;99.90;;;;;;5070387;28;20558;-79
2023/01/26 10:02:38;;;;;;;12.23;8.38;;;3.60;99.90;;;;;;5052693;28;20221;-80
2023/01/26 10:05:16;;;;;;;11.20;8.88;;;3.60;99.90;;;;;;5052533;28;20252;-78
2023/01/26 10:07:44;;;;;;;15.48;9.80;;;3.60;99.90;;;;;;5053504;28;20224;-79
2023/01/26 10:10:18;;;;;;;18.48;11.52;;;3.60;99.90;;;;;;5072216;28;20220;-79
2023/01/26 10:12:51;;;;;;;11.60;9.18;;;3.60;99.90;;;;;;5072666;28;20220;-79
2023/01/26 10:15:29;;;;;;;12.23;9.13;;;3.60;99.90;;;;;;5069745;28;20234;-79
2023/01/26 10:17:58;;;;;;;13.18;7.60;;;3.60;99.90;;;;;;5072675;28;20215;-78
2023/01/26 10:20:36;;;;;;;11.77;8.57;;;3.60;99.90;;;;;;5072820;28;20642;-78
2023/01/26 10:23:07;;;;;;;15.35;10.50;;;3.60;99.90;;;;;;5072566;28;20300;-78
2023/01/26 10:25:39;;;;;;;17.05;10.88;;;3.60;99.90;;;;;;5067407;28;20577;-78
2023/01/26 10:28:19;;;;;;;10.52;8.70;;;3.60;99.90;;;;;;5052490;28;20300;-78
2023/01/26 10:30:47;;;;;;;12.20;8.38;;;3.60;99.90;;;;;;5053376;28;20228;-78
2023/01/26 10:33:19;;;;;;;11.27;8.48;;;3.60;99.90;;;;;;5052804;28;20555;-78
2023/01/26 10:35:51;;;;;;;12.82;9.13;;;3.60;99.90;;;;;;5049550;28;20216;-78
2023/01/26 10:38:43;;;;;;;11.48;7.38;;;3.60;99.90;;;;;;5066320;28;20683;-78
2023/01/26 10:41:25;;;;;;;11.95;8.50;;;3.60;99.90;;;;;;5043417;28;20243;-77
2023/01/26 10:43:56;;;;;;;13.68;9.25;;;3.60;99.90;;;;;;5066242;28;20309;-78
2023/01/26 10:46:29;;;;;;;17.38;10.68;;;3.60;99.90;;;;;;5072078;28;20232;-78
2023/01/26 10:48:59;;;;;;;13.70;9.68;;;3.60;99.90;;;;;;5072425;28;20220;-78
2023/01/26 10:51:30;;;;;;;11.88;9.35;;;3.50;99.90;;;;;;5071985;28;20231;-79
2023/01/26 10:54:32;;;;;;;11.05;8.95;;;3.60;99.90;;;;;;5073032;28;20240;-79
2023/01/26 10:57:02;;;;;;;13.30;9.73;;;3.60;99.90;;;;;;4996826;28;20221;-79
2023/01/26 10:59:34;;;;;;;13.13;9.48;;;3.50;99.90;;;;;;5004973;28;20230;-79
2023/01/26 11:02:04;;;;;;;13.15;9.90;;;3.60;99.90;;;;;;5031256;28;20310;-78
2023/01/26 11:04:31;;;;;;;9.95;8.75;;;3.50;99.90;;;;;;5072718;28;20316;-80
2023/01/26 11:07:26;;;;;;;13.77;9.95;;;3.60;99.90;;;;;;5071545;28;20242;-78
2023/01/26 11:09:56;;;;;;;9.98;7.65;;;3.60;99.90;;;;;;5061523;28;20224;-80
2023/01/26 11:12:26;;;;;;;10.73;8.38;;;3.60;99.90;;;;;;5072369;28;20258;-80
2023/01/26 11:15:02;;;;;;;9.65;8.40;;;3.60;99.90;;;;;;5071940;28;20228;-80
2023/01/26 11:17:38;;;;;;;11.68;8.68;;;3.60;99.90;;;;;;5072655;28;20235;-78
2023/01/26 11:20:38;;;;;;;9.90;7.93;;;3.60;99.90;;;;;;5064163;28;20219;-79
2023/01/26 11:23:13;;;;;;;11.38;7.72;;;3.60;99.90;;;;;;5062206;28;20277;-77
2023/01/26 11:25:55;;;;;;;9.27;7.00;;;3.70;99.90;;;;;;5071891;28;20253;-77
2023/01/26 11:28:37;;;;;;;10.43;8.55;;;3.70;99.90;;;;;;5071110;28;20285;-77
2023/01/26 11:31:22;;;;;;;10.43;7.30;;;3.70;99.90;;;;;;5048071;28;20280;-77
2023/01/26 11:34:00;;;;;;;7.57;6.80;;;3.70;99.90;;;;;;5071425;28;20216;-78
2023/01/26 11:36:40;;;;;;;9.63;7.15;;;3.70;99.90;;;;;;5060377;28;20216;-77
2023/01/26 11:39:20;;;;;;;11.93;8.00;;;3.70;99.90;;;;;;5072201;28;20288;-79
2023/01/26 11:42:00;;;;;;;10.13;8.15;;;3.70;99.90;;;;;;5076144;28;20534;-77
2023/01/26 11:44:59;;;;;;;8.50;7.45;;;3.70;99.90;;;;;;5074066;28;20662;-77
2023/01/26 11:47:37;;;;;;;7.70;6.47;;;3.70;99.90;;;;;;5048262;28;20227;-77
2023/01/26 11:50:15;;;;;;;8.35;6.07;;;3.70;99.90;;;;;;5073979;28;20234;-79
2023/01/26 11:52:51;;;;;;;8.20;6.40;;;3.70;99.90;;;;;;5073702;28;20230;-79
2023/01/26 11:55:27;;;;;;;9.15;6.60;;;3.80;99.90;;;;;;5074916;28;20253;-79
2023/01/26 11:58:10;;;;;;;5.90;5.00;;;3.80;99.90;;;;;;5073781;28;20223;-79
2023/01/26 12:00:50;;;;;;;5.00;4.50;;;3.80;99.90;;;;;;5073673;28;20577;-79
2023/01/26 12:03:23;;;;;;;6.38;5.28;;;3.90;99.90;;;;;;5073936;28;20306;-79
2023/01/26 12:05:54;;;;;;;8.68;6.07;;;3.90;99.90;;;;;;5076542;28;20220;-79
2023/01/26 12:08:26;;;;;;;8.00;6.53;;;3.90;99.90;;;;;;5077159;28;20231;-77
2023/01/26 12:11:21;;;;;;;8.68;6.50;;;3.90;99.90;;;;;;5076101;28;20286;-79
2023/01/26 12:14:08;;;;;;;7.10;5.82;;;3.90;99.90;;;;;;5075166;28;20232;-78
2023/01/26 12:16:44;;;;;;;6.65;5.65;;;3.90;99.90;;;;;;5073857;28;20288;-77
2023/01/26 12:19:31;;;;;;;10.52;6.88;;;4.00;99.90;;;;;;5075540;28;20232;-77
2023/01/26 12:22:03;;;;;;;6.97;5.80;;;4.00;99.90;;;;;;5073984;28;20216;-77
2023/01/26 12:24:39;;;;;;;6.15;5.50;;;4.00;99.90;;;;;;5075439;28;20224;-78
2023/01/26 12:27:16;;;;;;;6.78;6.13;;;4.00;99.90;;;;;;5074652;28;20220;-79
2023/01/26 12:29:49;;;;;;;8.02;6.93;;;4.00;99.90;;;;;;5075676;28;20236;-79
2023/01/26 12:32:17;;;;;;;8.32;6.78;;;4.00;99.90;;;;;;5076462;28;20223;-79
2023/01/26 12:34:44;;;;;;;9.23;6.70;;;4.00;99.90;;;;;;5075194;28;20571;-77
2023/01/26 12:37:53;;;;;;;;;;;;;;;;;;;;;
2023/01/26 12:40:34;;;;;;;14.95;10.32;;;4.10;99.90;;;;;;5074675;28;20558;-77
2023/01/26 12:43:16;;;;;;;12.80;9.40;;;4.10;99.90;;;;;;5074860;28;20228;-77
2023/01/26 12:45:49;;;;;;;11.60;8.88;;;4.10;99.90;;;;;;5075298;28;20223;-78
2023/01/26 12:48:21;;;;;;;9.15;7.53;;;4.10;99.90;;;;;;5074409;28;20212;-77
2023/01/26 12:50:52;;;;;;;8.05;6.28;;;4.10;99.90;;;;;;5074375;28;20254;-78
2023/01/26 12:53:28;;;;;;;9.20;6.85;;;4.10;99.90;;;;;;5073467;28;20228;-78
2023/01/26 12:56:03;;;;;;;7.00;6.30;;;4.10;99.90;;;;;;5073872;28;20224;-77
2023/01/26 12:58:55;;;;;;;6.82;6.15;;;4.10;99.90;;;;;;5074731;28;20223;-76
2023/01/26 13:01:26;;;;;;;8.73;6.30;;;4.00;99.90;;;;;;5074239;28;20559;-76
2023/01/26 13:03:55;;;;;;;9.07;7.45;;;4.10;99.90;;;;;;5073861;28;20266;-77
2023/01/26 13:06:25;;;;;;;7.90;7.20;;;4.00;99.90;;;;;;5074071;28;20220;-78
2023/01/26 13:09:03;;;;;;;6.95;6.25;;;4.00;99.90;;;;;;5077027;28;20708;-78
2023/01/26 13:11:49;;;;;;;6.95;6.25;;;4.00;99.90;;;;;;5065471;28;20255;-78
2023/01/26 13:14:34;;;;;;;11.35;7.55;;;4.00;99.90;;;;;;5075109;28;20684;-79
2023/01/26 13:17:49;;;;;;;12.27;9.43;;;4.00;99.90;;;;;;5074872;28;20662;-78
2023/01/26 13:20:24;;;;;;;18.35;10.18;;;4.00;99.90;;;;;;5020728;28;20228;-79
2023/01/26 13:22:58;;;;;;;12.95;9.80;;;4.00;99.90;;;;;;5074636;28;20223;-78
2023/01/26 13:25:39;;;;;;;8.95;6.90;;;4.00;99.90;;;;;;5075220;28;20220;-78
2023/01/26 13:28:13;;;;;;;14.98;9.57;;;4.00;99.90;;;;;;5074213;28;20220;-78
2023/01/26 13:30:46;;;;;;;13.95;10.15;;;4.00;99.90;;;;;;5075161;28;20229;-79
2023/01/26 13:33:22;;;;;;;12.07;8.68;;;3.90;99.90;;;;;;5074078;28;20244;-77
2023/01/26 13:35:52;;;;;;;11.90;8.30;;;4.00;99.90;;;;;;5074978;28;20704;-79
2023/01/26 13:38:31;;;;;;;9.63;7.82;;;4.00;99.90;;;;;;5072356;28;20227;-78
2023/01/26 13:40:58;;;;;;;7.63;6.82;;;3.90;99.90;;;;;;5075435;28;20302;-78
2023/01/26 13:43:32;;;;;;;10.02;7.40;;;3.90;99.90;;;;;;5074874;28;20220;-78
2023/01/26 13:46:11;;;;;;;12.18;9.25;;;3.90;99.90;;;;;;5074101;28;20231;-78
2023/01/26 13:48:44;;;;;;;10.15;8.82;;;3.90;99.90;;;;;;5074267;28;20269;-79
2023/01/26 13:51:18;;;;;;;9.30;8.35;;;3.90;99.90;;;;;;5074844;28;20250;-79
2023/01/26 13:53:53;;;;;;;11.93;9.02;;;3.90;99.90;;;;;;5075160;28;20220;-78
2023/01/26 13:56:30;;;;;;;13.70;8.30;;;3.90;99.90;;;;;;5073573;28;20526;-78
2023/01/26 13:59:10;;;;;;;13.93;9.27;;;3.90;99.90;;;;;;5075275;28;20684;-79
2023/01/26 14:01:44;;;;;;;11.00;8.85;;;3.90;99.90;;;;;;5074159;28;20351;-79
2023/01/26 14:04:16;;;;;;;11.23;10.02;;;3.90;99.90;;;;;;5073188;28;20223;-80
2023/01/26 14:06:49;;;;;;;13.57;9.88;;;3.90;99.90;;;;;;5051629;28;20231;-78